Savannah, GA

8:12 AM EST on January 24, 2017 (GMT -0500)
Savannah International | | Change Station

Elev 49 ft 32.13 °N, 81.20 °W | Updated 19 minutes ago

Clear
Clear
50 °F
Feels Like 50 °F
N
10
Wind Variable Wind from West

Today
High -- | Low -- °F
--% Chance of Precip.
Yesterday
High -- | Low -- °F
Precip. -- in
Pressure 29.75 in
Visibility 10.0 miles
Clouds Clear
Dew Point 43 °F
Humidity 77%
Rainfall 0.00 in
Snow Depth Not available.
7:22 AM 5:51 PM
Waning Crescent, 12% visible
METAR KSAV 241253Z 28009KT 10SM CLR 10/06 A2975 RMK AO2 SLP072 T01000061
Pressure 29.75 in
Visibility 10.0 miles
Clouds Clear
Dew Point 43 °F
Humidity 77%
Rainfall 0.00 in
Snow Depth Not available.
7:22 AM 5:51 PM
Waning Crescent, 12% visible
METAR KSAV 241253Z 28009KT 10SM CLR 10/06 A2975 RMK AO2 SLP072 T01000061

Get Your Daily Forecast Email!

Thanks for signing up!

Be on the lookout for a verification email in your inbox.

You'll start receiving the daily forecast at 8 AM.

×

10-Day Weather Forecast

Almanac

Astronomy

Jan. 24, 2017 Rise Set
Actual Time
Civil Twilight
Nautical Twilight
Astronomical Twilight
Moon
Length of Visible Light
Length of Day
Tomorrow will be .
, % of the Moon is Illuminated

Today's Extremes

State Highs State Lows

Community

WunderPhotos

Upload Photos

1,962,540 photos uploaded!

WunderBlog® & News

Nearby

Air Quality

  Air Quality AQ Index Pollutant
Not available.

Snow Depth

Station Depth Elevation

Earthquake Activity

City Distance Mag. Time & Date
Minimum magnitude displayed is 2.5.

Coastal Water Temperatures

Place Temperature

Stations

Nearby Weather Stations

Station Location Temp. Windchill Dew Point Humidity Wind Precip. Elev Updated Type
                   

Watches & Warnings

Flood Warning
Issued: 8:29 PM EST Jan. 23, 2017 – National Weather Service

The Flood Warning continues for
the Ogeechee river near Eden.
* At 8 PM Monday the stage was 11.3 feet.
* Flood stage is 11.0 feet.
* Minor flooding is occurring.
* Forecast, the river will continue rising to near 12.0 feet by
Thursday evening. Additional rises may be possible thereafter.
* At 12.0 feet, water encroaches on some homes along dashers Landing
Road and Yarbrough Landing Road. Davis Landing Road also becomes
impassable.


Lat... Lon 3246 8160 3252 8152 3227 8140 3208 8133
          3206 8143 3223 8150




Small Craft Advisory
Issued: 6:31 AM EST Jan. 24, 2017 – National Weather Service

... Small Craft Advisory remains in effect until 10 am EST this
morning...

* impacts... wind and or wave conditions will be hazardous to
small craft.

Precautionary/preparedness actions...

During a Small Craft Advisory... inexperienced mariners...
especially those operating smaller vessels... should avoid
navigating in hazardous conditions.